Time;durP1;ratioP1;P1;durP2;ratioP2;P2;SDS_P1;SDS_P2;PMS_P1;PMS_P2;Temp;Humidity;BMP_temperature;BMP_pressure;BME280_temperature;BME280_humidity;BME280_pressure;Samples;Min_cycle;Max_cycle;Signal;HPM_P1;HPM_P2
2021/12/28 00:00:56;;;;;;;35.75;8.38;;;;;;;6.52;100.00;99282.34;6248859;22;20011;-90
2021/12/28 00:03:22;;;;;;;38.78;8.35;;;;;;;6.54;100.00;99285.66;6277027;22;20442;-89
2021/12/28 00:05:47;;;;;;;35.90;8.73;;;;;;;6.31;100.00;99246.75;6278079;22;20003;-89
2021/12/28 00:08:13;;;;;;;40.85;8.95;;;;;;;6.54;100.00;99277.56;6226009;22;20018;-89
2021/12/28 00:10:39;;;;;;;42.05;9.00;;;;;;;6.28;100.00;99241.00;6251074;22;20003;-90
2021/12/28 00:13:05;;;;;;;45.25;8.57;;;;;;;6.30;100.00;99263.13;6225596;22;20007;-90
2021/12/28 00:15:35;;;;;;;39.78;8.65;;;;;;;6.52;100.00;99305.78;6226115;22;20011;-90
2021/12/28 00:18:02;;;;;;;41.03;9.18;;;;;;;6.35;100.00;99271.38;6251259;22;20085;-90
2021/12/28 00:20:33;;;;;;;44.85;9.60;;;;;;;6.10;100.00;99236.47;6251054;22;20010;-90
2021/12/28 00:23:00;;;;;;;38.70;8.85;;;;;;;6.14;100.00;99243.00;6250820;22;20082;-90
2021/12/28 00:25:35;;;;;;;41.38;8.88;;;;;;;6.09;100.00;99240.19;6250584;22;20010;-89
2021/12/28 00:28:02;;;;;;;35.45;9.10;;;;;;;6.41;100.00;99300.09;6250566;22;20000;-90
2021/12/28 00:30:29;;;;;;;38.90;9.10;;;;;;;6.04;100.00;99234.66;6225746;22;20007;-90
2021/12/28 00:32:56;;;;;;;41.05;9.30;;;;;;;6.05;100.00;99229.03;6250952;22;20000;-90
2021/12/28 00:35:31;;;;;;;41.63;9.05;;;;;;;6.07;100.00;99240.41;6250908;22;20004;-89
2021/12/28 00:37:57;;;;;;;42.50;8.98;;;;;;;6.41;100.00;99292.00;6250148;22;20015;-89
2021/12/28 00:40:23;;;;;;;39.95;9.15;;;;;;;6.39;100.00;99279.81;6225560;22;20011;-89
2021/12/28 00:42:49;;;;;;;40.75;9.40;;;;;;;6.12;100.00;99239.72;6225348;22;20435;-90
2021/12/28 00:45:14;;;;;;;43.53;8.82;;;;;;;6.28;100.00;99249.09;6250792;22;20014;-89
2021/12/28 00:47:41;;;;;;;41.40;8.70;;;;;;;6.53;100.00;99281.28;6251036;22;20019;-90
2021/12/28 00:50:09;;;;;;;45.17;9.48;;;;;;;6.25;100.00;99231.50;6250497;22;20500;-88
2021/12/28 00:52:35;;;;;;;45.30;8.98;;;;;;;6.57;100.00;99269.00;6250668;22;20323;-90
2021/12/28 00:55:04;;;;;;;48.30;9.05;;;;;;;6.34;100.00;99225.81;6224785;22;20008;-89
2021/12/28 00:57:30;;;;;;;37.08;8.55;;;;;;;6.36;100.00;99227.19;6225564;22;20003;-89
2021/12/28 00:59:55;;;;;;;46.45;9.23;;;;;;;6.50;100.00;99257.50;6250601;22;20007;-89
2021/12/28 01:02:24;;;;;;;39.90;8.20;;;;;;;6.45;100.00;99257.34;6225082;22;20347;-89
2021/12/28 01:04:50;;;;;;;45.72;9.13;;;;;;;6.32;100.00;99250.28;6225064;22;20381;-89
2021/12/28 01:07:16;;;;;;;43.20;9.10;;;;;;;6.07;100.00;99202.72;6249698;22;20010;-89
2021/12/28 01:09:42;;;;;;;42.10;8.68;;;;;;;6.03;100.00;99201.53;6250496;22;20311;-89
2021/12/28 01:12:11;;;;;;;36.63;7.88;;;;;;;6.22;100.00;99234.63;6224695;22;20018;-89
2021/12/28 01:14:37;;;;;;;42.22;8.63;;;;;;;5.99;100.00;99197.63;6249675;22;20327;-88
2021/12/28 01:17:06;;;;;;;42.60;8.27;;;;;;;5.95;100.00;99194.56;6250599;22;20004;-89
2021/12/28 01:19:32;;;;;;;40.70;7.53;;;;;;;6.12;100.00;99232.47;6250030;22;20004;-89
2021/12/28 01:21:58;;;;;;;35.63;7.30;;;;;;;5.91;100.00;99203.31;6224928;22;20011;-89
2021/12/28 01:24:24;;;;;;;50.50;8.20;;;;;;;5.84;100.00;99195.28;6249990;22;20003;-89
2021/12/28 01:26:50;;;;;;;43.08;7.28;;;;;;;5.94;100.00;99216.31;6224758;22;20011;-89
2021/12/28 01:29:15;;;;;;;39.95;8.07;;;;;;;5.76;100.00;99182.97;6249873;22;20054;-89
2021/12/28 01:31:41;;;;;;;43.50;7.80;;;;;;;5.78;100.00;99190.81;6277505;22;20446;-90
2021/12/28 01:34:09;;;;;;;43.80;7.38;;;;;;;5.87;100.00;99202.09;6232206;22;20004;-90
2021/12/28 01:36:34;;;;;;;42.05;7.50;;;;;;;5.86;100.00;99206.69;6254148;22;20087;-89
2021/12/28 01:39:01;;;;;;;41.95;7.75;;;;;;;6.15;100.00;99239.28;6250255;22;20465;-90
2021/12/28 01:41:31;;;;;;;49.55;7.93;;;;;;;5.79;100.00;99195.16;6250230;22;19999;-89
2021/12/28 01:43:59;;;;;;;36.28;7.30;;;;;;;6.09;100.00;99227.53;6249982;22;20007;-89
2021/12/28 01:46:24;;;;;;;45.55;7.25;;;;;;;6.12;100.00;99221.69;6224466;22;20019;-89
2021/12/28 01:48:50;;;;;;;50.25;7.57;;;;;;;5.85;100.00;99182.69;6224431;22;20008;-88
2021/12/28 01:51:20;;;;;;;49.55;7.25;;;;;;;5.93;100.00;99185.03;6224573;22;20086;-88
2021/12/28 01:53:49;;;;;;;42.28;7.95;;;;;;;6.13;100.00;99209.06;6249652;22;20031;-89
2021/12/28 01:56:21;;;;;;;46.15;7.72;;;;;;;6.35;100.00;99239.03;6249489;22;20061;-89
2021/12/28 01:58:50;;;;;;;50.65;7.68;;;;;;;6.35;100.00;99238.19;6249913;22;20055;-88
2021/12/28 02:01:16;;;;;;;51.40;7.72;;;;;;;6.17;100.00;99193.28;6199597;22;20014;-89
2021/12/28 02:03:43;;;;;;;45.00;7.45;;;;;;;6.05;100.00;99180.56;6249177;22;20434;-89
2021/12/28 02:06:10;;;;;;;47.22;7.80;;;;;;;6.42;100.00;99237.09;6249675;22;20027;-89
2021/12/28 02:08:37;;;;;;;44.22;7.53;;;;;;;6.10;100.00;99178.03;6249423;22;20504;-89
2021/12/28 02:11:13;;;;;;;40.53;7.13;;;;;;;6.36;100.00;99210.22;6224204;22;20035;-89
2021/12/28 02:13:42;;;;;;;40.58;7.13;;;;;;;6.46;100.00;99221.28;6249744;22;20385;-90
2021/12/28 02:16:07;;;;;;;50.58;7.38;;;;;;;6.32;100.00;99197.22;6199481;22;20007;-89
2021/12/28 02:18:34;;;;;;;40.63;7.75;;;;;;;6.44;100.00;99215.31;6224669;22;20036;-89
2021/12/28 02:21:01;;;;;;;39.00;7.07;;;;;;;6.42;100.00;99202.06;6248948;22;20003;-89
2021/12/28 02:23:27;;;;;;;37.45;7.10;;;;;;;6.60;100.00;99232.69;6224539;22;20008;-88
2021/12/28 02:25:53;;;;;;;42.58;7.10;;;;;;;6.26;100.00;99179.28;6249100;22;20010;-88
2021/12/28 02:28:19;;;;;;;37.03;6.93;;;;;;;6.26;100.00;99175.75;6248925;22;20449;-89
2021/12/28 02:30:51;;;;;;;45.35;6.75;;;;;;;6.30;100.00;99160.78;6249810;22;20004;-89
2021/12/28 02:33:23;;;;;;;43.38;7.28;;;;;;;6.65;100.00;99222.88;6249464;22;20338;-89
2021/12/28 02:35:49;;;;;;;38.92;7.25;;;;;;;6.32;100.00;99161.38;6249452;22;20003;-89
2021/12/28 02:38:14;;;;;;;43.13;7.22;;;;;;;6.29;100.00;99167.22;6224578;22;20559;-90
2021/12/28 02:40:43;;;;;;;39.75;7.05;;;;;;;6.70;100.00;99230.25;6250413;22;20004;-89
2021/12/28 02:43:13;;;;;;;46.85;8.32;;;;;;;6.70;100.00;99216.78;6250300;22;19999;-90
2021/12/28 02:46:02;;;;;;;48.20;9.70;;;;;;;6.74;100.00;99217.97;6277056;22;20477;-90
2021/12/28 02:48:29;;;;;;;44.33;7.15;;;;;;;6.62;100.00;99185.59;6250122;22;20435;-90
2021/12/28 02:51:01;;;;;;;42.50;7.38;;;;;;;6.66;100.00;99186.78;6249399;22;20043;-90
2021/12/28 02:53:30;;;;;;;38.20;6.65;;;;;;;6.80;100.00;99202.75;6249863;22;20065;-90
2021/12/28 02:55:58;;;;;;;38.03;7.47;;;;;;;6.46;100.00;99146.66;6249918;22;20061;-90
2021/12/28 02:58:42;;;;;;;40.58;6.78;;;;;;;6.81;100.00;99193.63;6250158;22;20003;-90
2021/12/28 03:01:09;;;;;;;37.95;7.15;;;;;;;6.80;100.00;99195.47;6249881;22;20000;-90
2021/12/28 03:03:43;;;;;;;40.78;7.40;;;;;;;6.80;100.00;99192.78;6249908;22;20019;-90
2021/12/28 03:06:11;;;;;;;39.33;6.93;;;;;;;6.72;100.00;99171.56;6250205;22;20513;-90
2021/12/28 03:08:43;;;;;;;42.45;7.10;;;;;;;6.49;100.00;99138.09;6249987;22;20418;-90
2021/12/28 03:11:10;;;;;;;41.95;7.38;;;;;;;6.69;100.00;99163.94;6249787;22;20387;-90
2021/12/28 03:13:41;;;;;;;39.42;6.13;;;;;;;6.72;100.00;99170.72;6249266;22;20065;-89
2021/12/28 03:16:09;;;;;;;40.78;6.85;;;;;;;6.73;100.00;99170.53;6276510;22;20003;-89
2021/12/28 03:18:35;;;;;;;39.47;6.50;;;;;;;6.50;100.00;99141.63;6249134;22;20051;-89
2021/12/28 03:21:06;;;;;;;40.25;6.80;;;;;;;6.46;100.00;99133.19;6249271;22;20449;-89
2021/12/28 03:23:34;;;;;;;35.80;6.10;;;;;;;6.62;100.00;99153.25;6248805;22;20334;-89
2021/12/28 03:26:07;;;;;;;43.60;6.43;;;;;;;6.64;100.00;99156.56;6249479;22;20449;-89
2021/12/28 03:28:35;;;;;;;41.78;6.38;;;;;;;6.53;100.00;99126.91;6224487;22;20015;-89
2021/12/28 03:31:03;;;;;;;36.60;5.78;;;;;;;6.90;100.00;99173.34;6248862;22;20414;-89
2021/12/28 03:33:32;;;;;;;39.85;6.32;;;;;;;6.83;100.00;99148.38;6224384;22;20069;-88
2021/12/28 03:35:58;;;;;;;34.67;6.38;;;;;;;6.86;100.00;99145.22;6248930;22;19999;-89
2021/12/28 03:38:24;;;;;;;39.13;5.88;;;;;;;6.82;100.00;99142.16;6223774;22;20102;-89
2021/12/28 03:40:53;;;;;;;37.13;6.15;;;;;;;7.07;100.00;99165.41;6249079;22;20007;-89
2021/12/28 03:43:20;;;;;;;39.83;5.85;;;;;;;7.07;100.00;99149.22;6249239;22;20014;-89
2021/12/28 03:45:47;;;;;;;32.10;5.82;;;;;;;7.15;100.00;99161.53;6224155;22;20008;-89
2021/12/28 03:48:13;;;;;;;35.90;5.45;;;;;;;6.87;100.00;99103.72;6248837;22;20059;-89
2021/12/28 03:50:39;;;;;;;32.40;5.28;;;;;;;7.15;100.00;99154.25;6249156;22;20415;-89
2021/12/28 03:53:06;;;;;;;35.08;5.43;;;;;;;7.16;100.00;99149.69;6198305;22;20357;-87
2021/12/28 03:55:32;;;;;;;33.08;5.30;;;;;;;6.98;100.00;99119.09;6249071;22;20496;-89
2021/12/28 03:58:02;;;;;;;31.92;5.25;;;;;;;7.05;100.00;99112.75;6275995;22;20000;-89
2021/12/28 04:00:32;;;;;;;32.72;5.72;;;;;;;6.80;100.00;99063.38;6249357;22;20035;-89
2021/12/28 04:02:58;;;;;;;32.85;5.20;;;;;;;7.05;100.00;99099.28;6248999;22;20090;-89
2021/12/28 04:05:24;;;;;;;35.17;4.90;;;;;;;7.22;100.00;99115.56;6248479;22;20724;-89
2021/12/28 04:07:51;;;;;;;27.55;5.00;;;;;;;7.38;100.00;99133.72;6248784;22;20015;-89
2021/12/28 04:10:18;;;;;;;34.33;5.93;;;;;;;7.38;100.00;99133.72;6223469;22;20055;-89
2021/12/28 04:12:44;;;;;;;34.22;5.45;;;;;;;7.15;100.00;99092.22;6224006;22;20382;-89
2021/12/28 04:15:13;;;;;;;32.33;4.70;;;;;;;7.35;100.00;99109.91;6249022;22;20050;-90
2021/12/28 04:17:40;;;;;;;36.17;5.90;;;;;;;7.49;100.00;99137.47;6249256;22;19996;-89
2021/12/28 04:20:12;;;;;;;35.78;5.25;;;;;;;7.52;100.00;99131.59;6249095;22;20000;-89
2021/12/28 04:22:41;;;;;;;28.13;4.72;;;;;;;7.51;100.00;99124.56;6248400;22;20431;-89
2021/12/28 04:25:08;;;;;;;28.83;5.15;;;;;;;7.58;100.00;99124.44;6248887;22;20124;-88
2021/12/28 04:27:33;;;;;;;26.33;4.07;;;;;;;7.32;100.00;99086.94;6249281;22;20006;-90
2021/12/28 04:29:59;;;;;;;31.20;4.90;;;;;;;7.48;100.00;99098.84;6199084;22;20007;-89
2021/12/28 04:32:25;;;;;;;30.27;4.45;;;;;;;7.26;100.00;99068.97;6255758;22;20095;-89
2021/12/28 04:34:50;;;;;;;25.50;3.85;;;;;;;7.55;100.00;99110.34;6229275;22;20004;-90
2021/12/28 04:37:18;;;;;;;22.77;4.68;;;;;;;7.55;100.00;99106.84;6201569;22;20016;-90
2021/12/28 04:39:44;;;;;;;26.65;4.13;;;;;;;7.71;100.00;99132.28;6248758;22;20008;-89
2021/12/28 04:42:09;;;;;;;27.92;4.15;;;;;;;7.58;100.00;99113.66;6249026;22;20008;-90
2021/12/28 04:44:35;;;;;;;29.45;4.30;;;;;;;7.74;100.00;99134.50;6224283;22;20008;-89
2021/12/28 04:47:01;;;;;;;30.23;4.45;;;;;;;7.53;100.00;99106.25;6223921;22;20019;-89
2021/12/28 04:49:28;;;;;;;23.88;3.95;;;;;;;7.47;100.00;99097.22;6248898;22;20000;-89
2021/12/28 04:51:54;;;;;;;27.23;4.30;;;;;;;7.75;100.00;99135.31;6250409;22;20493;-88
2021/12/28 04:54:20;;;;;;;25.75;4.28;;;;;;;7.59;100.00;99113.41;6225154;22;20004;-89
2021/12/28 04:56:46;;;;;;;28.67;4.50;;;;;;;7.44;100.00;99078.81;6225278;22;20008;-89
2021/12/28 04:59:18;;;;;;;25.05;4.13;;;;;;;7.66;100.00;99115.94;6277179;22;20078;-88
2021/12/28 05:01:44;;;;;;;23.92;4.13;;;;;;;7.81;100.00;99147.84;6250280;22;20015;-89
2021/12/28 05:04:10;;;;;;;25.95;3.95;;;;;;;7.44;100.00;99081.53;6200126;22;20450;-89
2021/12/28 05:06:37;;;;;;;25.73;4.03;;;;;;;7.80;100.00;99138.94;6250442;22;20490;-89
2021/12/28 05:09:06;;;;;;;25.15;4.20;;;;;;;7.69;100.00;99115.47;6277360;22;20011;-89
2021/12/28 05:11:33;;;;;;;24.60;3.85;;;;;;;7.67;100.00;99104.91;6250173;22;19999;-89
2021/12/28 05:13:59;;;;;;;26.08;3.88;;;;;;;7.79;100.00;99126.47;6277723;22;20000;-89
2021/12/28 05:16:28;;;;;;;22.23;3.88;;;;;;;7.79;100.00;99123.78;6224800;22;20011;-90
2021/12/28 05:18:55;;;;;;;27.75;3.90;;;;;;;7.42;100.00;99064.72;6226289;22;20048;-89
2021/12/28 05:21:21;;;;;;;20.25;3.55;;;;;;;7.55;100.00;99077.97;6250114;22;20031;-89
2021/12/28 05:23:46;;;;;;;16.45;3.38;;;;;;;7.81;100.00;99121.69;6224845;22;20026;-89
2021/12/28 05:26:12;;;;;;;18.33;3.42;;;;;;;7.78;100.00;99113.22;6250344;22;20063;-89
2021/12/28 05:28:38;;;;;;;22.80;3.20;;;;;;;7.79;100.00;99121.09;6200445;22;20004;-90
2021/12/28 05:31:10;;;;;;;21.73;3.42;;;;;;;7.83;100.00;99122.25;6250433;22;20011;-89
2021/12/28 05:33:35;;;;;;;16.40;3.33;;;;;;;7.82;100.00;99112.50;6249803;22;20000;-89
2021/12/28 05:36:01;;;;;;;16.95;3.15;;;;;;;7.83;100.00;99108.75;6224795;22;20019;-89
2021/12/28 05:38:26;;;;;;;16.08;3.03;;;;;;;7.55;100.00;99069.06;6224737;22;20423;-89
2021/12/28 05:40:52;;;;;;;22.27;3.80;;;;;;;7.69;100.00;99089.31;6250166;22;20343;-89
2021/12/28 05:43:20;;;;;;;19.63;3.80;;;;;;;7.46;100.00;99051.59;6250314;22;20007;-90
2021/12/28 05:45:46;;;;;;;20.33;3.38;;;;;;;7.69;100.00;99086.63;6250553;22;20026;-90
2021/12/28 05:48:11;;;;;;;17.58;3.05;;;;;;;7.61;100.00;99069.97;6250210;22;20423;-90
2021/12/28 05:50:40;;;;;;;15.35;2.85;;;;;;;7.80;100.00;99095.72;6250225;22;20082;-90
2021/12/28 05:53:05;;;;;;;19.23;3.22;;;;;;;7.77;100.00;99084.59;6250279;22;20367;-90
2021/12/28 05:55:32;;;;;;;13.27;2.70;;;;;;;7.69;100.00;99069.59;6250306;22;20015;-90
2021/12/28 05:57:58;;;;;;;20.63;3.72;;;;;;;7.46;100.00;99035.41;6250893;22;20000;-89
2021/12/28 06:00:29;;;;;;;17.77;3.03;;;;;;;7.65;100.00;99061.16;6250350;22;20010;-90
2021/12/28 06:02:56;;;;;;;16.90;3.20;;;;;;;7.51;100.00;99036.34;6250224;22;20034;-90
2021/12/28 06:05:22;;;;;;;19.80;2.63;;;;;;;7.67;100.00;99056.31;6250154;22;20014;-89
2021/12/28 06:07:51;;;;;;;17.48;3.20;;;;;;;7.78;100.00;99070.03;6224260;22;20090;-90
2021/12/28 06:10:17;;;;;;;16.85;3.35;;;;;;;7.75;100.00;99060.53;6249868;22;19999;-89
2021/12/28 06:12:44;;;;;;;15.35;3.00;;;;;;;7.78;100.00;99051.13;6249576;22;20048;-89
2021/12/28 06:15:10;;;;;;;12.38;2.65;;;;;;;7.89;100.00;99061.88;6249513;22;20435;-88
2021/12/28 06:17:36;;;;;;;13.73;2.92;;;;;;;7.94;100.00;99073.84;6249716;22;20000;-89
2021/12/28 06:20:03;;;;;;;15.65;2.50;;;;;;;7.75;100.00;99052.44;6249508;22;20014;-90
2021/12/28 06:22:29;;;;;;;13.75;2.80;;;;;;;7.88;100.00;99073.75;6250519;22;20053;-89
2021/12/28 06:24:54;;;;;;;16.27;2.88;;;;;;;7.73;100.00;99030.25;6199105;22;20011;-92
2021/12/28 06:27:21;;;;;;;16.85;2.85;;;;;;;7.73;100.00;99033.75;6225554;22;20012;-92
2021/12/28 06:29:49;;;;;;;16.58;2.72;;;;;;;7.87;100.00;99057.81;6225482;22;20342;-92
2021/12/28 06:32:15;;;;;;;16.70;2.70;;;;;;;7.74;100.00;99031.91;6225654;22;20008;-89
2021/12/28 06:34:41;;;;;;;15.85;2.92;;;;;;;7.67;100.00;99023.13;6203665;22;20323;-88
2021/12/28 06:37:08;;;;;;;16.70;2.88;;;;;;;7.87;100.00;99049.69;6215270;22;20022;-88
2021/12/28 06:39:33;;;;;;;16.17;2.30;;;;;;;7.53;100.00;98991.03;6262281;22;20008;-91
2021/12/28 06:42:02;;;;;;;14.32;2.58;;;;;;;7.52;100.00;99000.19;6224581;22;20030;-90
2021/12/28 06:44:31;;;;;;;10.60;2.35;;;;;;;7.63;100.00;99022.81;6250820;22;20397;-91
2021/12/28 06:46:57;;;;;;;14.52;2.45;;;;;;;7.72;100.00;99032.16;6226494;22;20035;-91
2021/12/28 06:49:23;;;;;;;13.23;2.60;;;;;;;7.72;100.00;99032.16;6251066;22;20389;-91
2021/12/28 06:51:49;;;;;;;12.85;3.10;;;;;;;7.87;100.00;99049.69;6251602;22;20014;-91
2021/12/28 06:54:17;;;;;;;11.07;2.42;;;;;;;7.76;100.00;99020.84;6251032;22;20011;-91
2021/12/28 06:56:46;;;;;;;12.20;2.63;;;;;;;7.86;100.00;99042.66;6250556;22;20008;-91
2021/12/28 06:59:14;;;;;;;13.52;2.50;;;;;;;7.45;100.00;98972.50;6226596;22;20435;-91
2021/12/28 07:01:43;;;;;;;11.10;2.63;;;;;;;7.44;100.00;98984.38;6250849;22;19999;-91
2021/12/28 07:04:09;;;;;;;12.55;2.35;;;;;;;7.86;100.00;99045.34;6252101;22;20082;-92
2021/12/28 07:06:37;;;;;;;13.52;2.80;;;;;;;7.69;100.00;99015.59;6251402;22;20003;-91
2021/12/28 07:09:04;;;;;;;11.38;2.33;;;;;;;7.76;100.00;99023.56;6250925;22;20013;-91
2021/12/28 07:11:32;;;;;;;9.35;2.33;;;;;;;7.51;100.00;98993.16;6225984;22;20098;-92
2021/12/28 07:14:02;;;;;;;11.00;2.33;;;;;;;7.54;100.00;98989.97;6225613;22;20004;-91
2021/12/28 07:16:29;;;;;;;12.00;2.05;;;;;;;7.55;100.00;98986.19;6250402;22;20007;-92
2021/12/28 07:18:55;;;;;;;9.88;2.22;;;;;;;7.87;100.00;99022.69;6251717;22;20004;-92
2021/12/28 07:21:22;;;;;;;13.07;2.50;;;;;;;7.82;100.00;99025.28;6252569;22;20011;-92
2021/12/28 07:23:49;;;;;;;11.95;2.00;;;;;;;8.01;100.00;99047.50;6251967;22;20003;-92
2021/12/28 07:26:16;;;;;;;8.68;2.03;;;;;;;7.99;100.00;99053.16;6252518;22;20014;-92
2021/12/28 07:28:42;;;;;;;9.70;2.08;;;;;;;7.75;100.00;99016.50;6258959;22;20048;-91
2021/12/28 07:31:10;;;;;;;9.38;1.92;;;;;;;7.99;100.00;99055.84;6266359;22;20008;-91
2021/12/28 07:33:37;;;;;;;8.55;1.80;;;;;;;7.61;100.00;98979.00;6254134;22;20009;-91
2021/12/28 07:36:07;;;;;;;8.70;2.28;;;;;;;7.98;100.00;99045.28;6250816;22;20057;-91
2021/12/28 07:38:34;;;;;;;9.52;2.28;;;;;;;7.82;100.00;99018.00;6259059;22;20075;-92
2021/12/28 07:41:00;;;;;;;11.65;2.42;;;;;;;7.60;100.00;98985.47;6227462;22;20080;-91
2021/12/28 07:43:30;;;;;;;11.77;2.58;;;;;;;7.84;100.00;99025.84;6250648;22;20423;-91
2021/12/28 07:45:56;;;;;;;7.22;2.47;;;;;;;7.60;100.00;98992.75;6250985;22;20334;-91
2021/12/28 07:48:24;;;;;;;11.13;2.50;;;;;;;7.59;100.00;98989.25;6249434;22;20010;-89
2021/12/28 07:51:00;;;;;;;9.88;2.30;;;;;;;7.61;100.00;98986.31;6250143;22;20004;-90
2021/12/28 07:53:25;;;;;;;9.75;2.35;;;;;;;7.59;100.00;98988.41;6249604;22;20077;-91
2021/12/28 07:55:51;;;;;;;9.52;2.58;;;;;;;7.56;100.00;98978.94;6250006;22;20003;-91
2021/12/28 07:58:27;;;;;;;9.45;2.67;;;;;;;7.98;100.00;99046.09;6249558;22;20006;-91
2021/12/28 08:00:53;;;;;;;11.55;2.83;;;;;;;7.62;100.00;98974.44;6224426;22;20064;-91
2021/12/28 08:03:22;;;;;;;8.10;2.90;;;;;;;7.68;100.00;98984.28;6250178;22;20079;-90
2021/12/28 08:05:49;;;;;;;10.27;2.63;;;;;;;7.88;100.00;99013.50;6225823;22;20012;-91
2021/12/28 08:08:23;;;;;;;9.98;3.22;;;;;;;7.75;100.00;98993.06;6224532;22;20012;-90
2021/12/28 08:10:49;;;;;;;8.48;3.40;;;;;;;7.68;100.00;98978.88;6222435;22;20081;-90
2021/12/28 08:13:16;;;;;;;11.35;3.78;;;;;;;7.82;100.00;98998.28;6224584;22;20007;-90
2021/12/28 08:15:44;;;;;;;11.05;3.65;;;;;;;7.79;100.00;98980.69;6224677;22;20094;-90
2021/12/28 08:18:10;;;;;;;10.00;3.65;;;;;;;8.18;100.00;99034.00;6276590;22;20377;-91
2021/12/28 08:20:39;;;;;;;10.15;4.18;;;;;;;7.97;100.00;99009.38;6249370;22;20004;-90
2021/12/28 08:23:06;;;;;;;10.10;4.18;;;;;;;8.01;100.00;99012.41;6249861;22;20017;-90
2021/12/28 08:25:32;;;;;;;12.77;4.30;;;;;;;8.09;100.00;99030.91;6251345;22;20004;-90
2021/12/28 08:27:58;;;;;;;10.30;4.50;;;;;;;8.15;100.00;99032.63;6277777;22;20446;-90
2021/12/28 08:30:34;;;;;;;12.23;4.63;;;;;;;7.79;100.00;98977.19;6252238;22;20003;-90
2021/12/28 08:33:03;;;;;;;11.55;4.68;;;;;;;7.79;100.00;98972.59;6255071;22;20435;-90
2021/12/28 08:35:32;;;;;;;8.55;4.57;;;;;;;7.80;100.00;98963.44;6226369;22;20030;-90
2021/12/28 08:38:00;;;;;;;10.07;5.32;;;;;;;7.81;100.00;98969.66;6278191;22;20015;-91
2021/12/28 08:40:29;;;;;;;9.32;4.78;;;;;;;7.85;100.00;98977.03;6227189;22;20094;-90
2021/12/28 08:42:54;;;;;;;10.18;6.03;;;;;;;7.84;100.00;98967.28;6251685;22;20019;-90
2021/12/28 08:45:26;;;;;;;9.07;6.03;;;;;;;7.90;100.00;98970.91;6250831;22;19999;-90
2021/12/28 08:47:52;;;;;;;11.60;6.25;;;;;;;7.98;100.00;98981.28;6251576;22;20003;-90
2021/12/28 08:50:22;;;;;;;12.38;7.00;;;;;;;7.84;100.00;98958.34;6251806;22;20003;-90
2021/12/28 08:52:56;;;;;;;10.23;7.70;;;;;;;7.98;100.00;98978.59;6250884;22;20007;-90
2021/12/28 08:55:25;;;;;;;12.35;7.18;;;;;;;7.98;100.00;98978.59;6228000;22;20027;-90
2021/12/28 08:57:51;;;;;;;14.18;7.65;;;;;;;8.18;100.00;99002.44;6226994;22;20083;-90
2021/12/28 09:01:09;;;;;;;12.98;7.88;;;;;;;7.92;100.00;98954.47;6251536;22;20065;-90
2021/12/28 09:03:35;;;;;;;13.65;8.45;;;;;;;8.32;100.00;99010.22;6251881;22;20011;-91
2021/12/28 09:06:02;;;;;;;11.48;8.95;;;;;;;8.07;100.00;98976.31;6279284;22;20466;-90
2021/12/28 09:08:31;;;;;;;17.52;9.10;;;;;;;7.98;100.00;98956.97;6227514;22;20490;-90
2021/12/28 09:11:24;;;;;;;12.77;8.57;;;;;;;8.03;100.00;98956.25;6279328;22;20033;-90
2021/12/28 09:13:49;;;;;;;14.40;9.25;;;;;;;8.04;100.00;98961.41;6253786;22;20025;-91
2021/12/28 09:16:22;;;;;;;13.50;9.60;;;;;;;8.42;100.00;99004.97;6256613;22;20413;-90
2021/12/28 09:18:48;;;;;;;15.50;9.82;;;;;;;8.19;100.00;98957.31;6234710;22;20004;-91
2021/12/28 09:21:17;;;;;;;15.52;10.45;;;;;;;8.34;100.00;98981.06;6258852;22;20007;-90
2021/12/28 09:23:43;;;;;;;13.52;10.02;;;;;;;8.42;100.00;98980.66;6260019;22;20007;-90
2021/12/28 09:26:16;;;;;;;14.30;10.88;;;;;;;8.18;100.00;98942.16;6263995;22;19996;-90
2021/12/28 09:28:42;;;;;;;11.00;8.85;;;;;;;8.19;100.00;98941.09;6240436;22;20001;-89
2021/12/28 09:31:26;;;;;;;12.63;10.07;;;;;;;8.55;100.00;98993.03;6261180;22;20514;-90
2021/12/28 09:34:31;;;;;;;14.93;10.57;;;;;;;8.47;100.00;98969.13;6292940;22;20429;-90
2021/12/28 09:37:33;;;;;;;;;;;;;;;;;;;;;
2021/12/28 09:43:08;;;;;;;13.48;10.95;;;;;;;8.46;100.00;98962.06;6128147;23;20025;-90
2021/12/28 09:45:53;;;;;;;17.25;11.88;;;;;;;8.25;100.00;98921.19;6139707;23;20068;-90
2021/12/28 09:48:19;;;;;;;14.32;11.43;;;;;;;8.48;100.00;98949.97;6242187;22;20018;-90
2021/12/28 09:50:53;;;;;;;13.73;10.07;;;;;;;8.28;100.00;98918.00;6270427;22;20031;-93
2021/12/28 09:53:57;;;;;;;11.90;9.20;;;;;;;8.31;100.00;98924.81;6269760;22;20000;-89
2021/12/28 09:56:37;;;;;;;11.43;9.25;;;;;;;8.50;100.00;98941.59;6270671;22;20014;-91
2021/12/28 09:59:06;;;;;;;12.68;9.55;;;;;;;8.39;100.00;98917.09;6270261;22;19995;-90
2021/12/28 10:01:35;;;;;;;13.80;9.52;;;;;;;8.39;100.00;98916.28;6239685;22;20007;-90
2021/12/28 10:04:03;;;;;;;11.30;8.55;;;;;;;8.64;100.00;98942.09;6268060;22;20027;-89
2021/12/28 10:06:30;;;;;;;12.32;8.95;;;;;;;8.63;100.00;98940.44;6267635;22;20003;-90
2021/12/28 10:09:18;;;;;;;11.50;8.25;;;;;;;8.66;100.00;98932.63;6266616;22;20039;-90
2021/12/28 10:11:52;;;;;;;9.35;7.57;;;;;;;8.47;100.00;98898.84;6232918;22;20004;-90
2021/12/28 10:14:36;;;;;;;9.05;7.88;;;;;;;8.68;100.00;98925.09;6266532;22;20011;-90
2021/12/28 10:17:11;;;;;;;12.45;8.68;;;;;;;8.66;100.00;98918.31;6244948;22;20010;-91
2021/12/28 10:19:47;;;;;;;7.22;6.53;;;;;;;8.87;100.00;98941.84;6268937;22;20082;-90
2021/12/28 10:25:23;;;;;;;7.95;6.20;;;;;;;8.49;100.00;98854.31;6236492;22;20004;-92
2021/12/28 10:28:02;;;;;;;10.43;5.90;;;;;;;8.60;100.00;98868.75;6270299;22;20023;-91
2021/12/28 10:30:35;;;;;;;7.03;5.68;;;;;;;8.67;100.00;98863.19;6263184;22;20031;-90
2021/12/28 10:33:13;;;;;;;9.43;4.88;;;;;;;8.68;100.00;98845.88;6257277;22;20339;-90
2021/12/28 10:36:10;;;;;;;5.57;4.50;;;;;;;8.72;100.00;98837.00;6264843;22;20063;-90
2021/12/28 10:38:39;;;;;;;5.57;4.20;;;;;;;9.10;100.00;98910.19;6266081;22;20016;-91
2021/12/28 10:41:14;;;;;;;4.20;3.35;;;;;;;8.77;100.00;98833.56;6269581;22;20039;-91
2021/12/28 10:43:46;;;;;;;5.35;3.22;;;;;;;8.76;100.00;98842.72;6260782;22;20007;-91
2021/12/28 10:46:49;;;;;;;4.25;3.25;;;;;;;8.68;100.00;98838.59;6252917;22;20007;-91
2021/12/28 10:49:41;;;;;;;5.97;3.20;;;;;;;8.75;100.00;98836.53;6237394;22;20071;-92
2021/12/28 10:52:49;;;;;;;4.90;3.03;;;;;;;8.68;100.00;98837.75;6252204;22;20007;-92
2021/12/28 10:55:24;;;;;;;5.28;3.10;;;;;;;8.65;100.00;98827.44;6130959;23;20009;-92
2021/12/28 10:57:57;;;;;;;5.95;3.38;;;;;;;8.86;100.00;98874.47;6266961;22;20064;-92
2021/12/28 11:00:38;;;;;;;3.97;3.30;;;;;;;8.79;100.00;98861.16;6251298;22;20072;-92
2021/12/28 11:03:32;;;;;;;4.55;3.53;;;;;;;8.98;100.00;98877.06;6252646;22;20004;-92
2021/12/28 11:06:34;;;;;;;;;;;;;;;;;;;;;
2021/12/28 11:09:17;;;;;;;6.90;4.07;;;;;;;8.54;100.00;98803.00;6266070;22;20079;-93
2021/12/28 11:11:44;;;;;;;6.63;4.00;;;;;;;8.53;100.00;98797.84;6250828;22;20078;-92
2021/12/28 11:14:16;;;;;;;4.05;3.03;;;;;;;8.72;100.00;98817.25;6225891;22;20042;-92
2021/12/28 11:16:55;;;;;;;5.13;4.15;;;;;;;8.66;100.00;98807.47;6251342;22;20000;-92
2021/12/28 11:19:39;;;;;;;6.57;4.13;;;;;;;8.94;100.00;98853.19;6250704;22;20012;-92
2021/12/28 11:22:11;;;;;;;6.70;4.68;;;;;;;8.57;100.00;98793.56;6250348;22;20054;-90
2021/12/28 11:24:43;;;;;;;4.35;3.95;;;;;;;8.63;100.00;98811.47;6250258;22;20057;-92
2021/12/28 11:27:10;;;;;;;;;;;;;;;8.92;100.00;98851.84;6250560;22;20007;-92
2021/12/28 11:29:40;;;;;;;5.95;3.65;;;;;;;8.92;100.00;98852.66;6225600;22;19907;-91
2021/12/28 11:32:16;;;;;;;5.55;3.83;;;;;;;8.42;100.00;98773.38;6225633;22;20058;-92
2021/12/28 11:35:41;;;;;;;6.00;2.60;;;;;;;8.46;100.00;98767.50;6250310;22;20013;-92
2021/12/28 11:38:07;;;;;;;4.82;2.45;;;;;;;8.36;100.00;98757.34;6085774;23;21009;-91
2021/12/28 11:40:37;;;;;;;3.35;1.80;;;;;;;8.67;100.00;98809.09;6159451;23;20013;-91
2021/12/28 11:43:09;;;;;;;3.25;1.65;;;;;;;8.48;100.00;98771.56;6135192;23;20364;-91
2021/12/28 11:45:38;;;;;;;;;;;;;;;8.92;100.00;98847.25;6159817;23;20749;-92
2021/12/28 11:48:09;;;;;;;5.93;1.60;;;;;;;8.06;100.00;98735.13;6159507;23;19909;-93